Terminal Aerodrome Forecast
Issued by NWS Pocatello, ID

Home | Current Version | Previous Version | Text Only | Print | Product List | Glossary On
Versions: 1 2 3 4 5 6 7 8 9 10 11 12
306
FTUS45 KPIH 260520
TAFBYI
TAF
KBYI 260520Z 2606/2706 VRB06KT P6SM VCSH FEW070 BKN110 OVC200
     FM260700 VRB06KT P6SM -SHRA OVC080
     FM261600 05008KT P6SM VCTS SCT060CB OVC100
     FM262100 28008KT P6SM -SHRA VCTS SCT060CB OVC100=

USA.gov is the U.S. government's official web portal to all federal, state and local government web resources and services.